Naugatuck, West Virginia
Current Conditions -  °F | °C
As of 9:55 AM on Wednesday 22 Oct 2014 (Local Time) from KSJS Reporting Station
Overcast Overcast  
Wind Chill: 46°   Ceiling: 1100
Heat Index: 46°   Visibility: 10mi
Dew Point: 42°   Wind: 3mph
Humidity: 87%   Direction: 340°NNW
Pressure: 30.22"   Gusts: NA
Location:  37.79°N, 82.35°W
Report Text: KSJS 221355Z AUTO 34003KT 10SM OVC011 08/06 A3022 RMK AO2 T00760055
Loading
Personal Weather Stations






























Interactive Weather Map
Tropical Storm Tracking
New forecast layout! Learn more

10-Day Weather Forecast

Advertisements
Track Severe Weather on mobile